KSEP/SEP METAR and TAF weather

Enter ICAO airport designator
Station Type Date Time Source
KSEP METAR 2024/04/18 07:35 UTC NOAA

KSEP 180735Z AUTO 17009KT 10SM OVC025 22/19 A2992 RMK AO2 T02200194


Station Type Date Time Source
KSEP Decoded METAR 2024/04/18 07:35 UTC NOAA

Stephenville, Clark Field Municipal Airport, TX, United States (KSEP) 32-13N 098-11W 402M
Apr 18, 2024 - 03:35 AM EDT / 2024.04.18 0735 UTC
Wind: from the S (170 degrees) at 10 MPH (9 KT):0
Visibility: 10 mile(s):0
Sky conditions: overcast
Temperature: 71.6 F (22.0 C)
Dew Point: 66.9 F (19.4 C)
Relative Humidity: 85%
Pressure (altimeter): 29.92 in. Hg (1013 hPa)
ob: KSEP 180735Z AUTO 17009KT 10SM OVC025 22/19 A2992 RMK AO2 T02200194
cycle: 7

Station Type Date Time Source
KSEP TAF UTC NOAA

Error!

Example: see airport list